Wednesday, June 20, 2018, 10:48 AM EDT
Back to Local

KITH, Ithaca, Ithaca Tompkins Regional Airport

Location: Ithaca, NY, United States Lat: 42.491
Local Time: 10:48 AM EDT (14:48 GMT) Lon: -76.458
Time Zone: US/Eastern Elev: 1099 ft

Show me the last for .
Show Decoded

2018-06-20 09:56 METAR KITH 201356Z 14004KT 10SM CLR 18/12 A2994 RMK AO2 SLP134 T01830122 =
2018-06-20 08:56 METAR KITH 201256Z 12003KT 10SM CLR 16/12 A2995 RMK AO2 SLP139 T01560122 =
2018-06-20 07:56 METAR KITH 201156Z 00000KT 10SM CLR 14/12 A2997 RMK AO2 SLP147 T01440122 10144
                 20111 53007 =
2018-06-20 06:56 METAR KITH 201056Z 00000KT 10SM CLR 13/12 A2996 RMK AO2 SLP143 T01330117 =
2018-06-20 06:30 METAR KITH 201030Z 07004KT 10SM CLR 13/12 A2996 RMK AO2 =
2018-06-20 05:56 METAR KITH 200956Z AUTO 08003KT 10SM CLR 12/11 A2996 RMK AO2 SLP142 T01220111 =
2018-06-20 04:56 METAR KITH 200856Z AUTO 06003KT 10SM CLR 11/11 A2995 RMK AO2 SLP139 T01110106
                 55006 =
2018-06-20 03:56 METAR KITH 200756Z AUTO 09003KT 10SM CLR 13/12 A2995 RMK AO2 SLP137 T01280117 =
2018-06-20 02:56 METAR KITH 200656Z AUTO 00000KT 10SM CLR 13/12 A2995 RMK AO2 SLP140 T01280117 =
2018-06-20 01:56 METAR KITH 200556Z AUTO 00000KT 10SM CLR 13/12 A2997 RMK AO2 SLP145 T01280117
                 10172 20122 58003 =
2018-06-20 00:56 METAR KITH 200456Z AUTO 00000KT 10SM CLR 13/12 A2997 RMK AO2 SLP147 T01330117 =
2018-06-19 23:56 METAR KITH 200356Z AUTO 00000KT 10SM CLR 14/11 A2998 RMK AO2 SLP148 T01390111
                 402330133 =
2018-06-19 22:56 METAR KITH 200256Z AUTO 17003KT 10SM CLR 14/11 A2998 RMK AO2 SLP147 T01440111
                 50000 =
2018-06-19 21:56 METAR KITH 200156Z 00000KT 10SM CLR 16/11 A2998 RMK AO2 SLP148 T01560106 =
2018-06-19 20:56 METAR KITH 200056Z 33004KT 10SM CLR 16/10 A2998 RMK AO2 SLP148 T01610100 =
2018-06-19 19:56 METAR KITH 192356Z 35004KT 10SM CLR 17/10 A2997 RMK AO2 SLP147 T01720100 10217
                 20172 53003 =
2018-06-19 18:56 METAR KITH 192256Z 31010KT 10SM CLR 21/11 A2996 RMK AO2 SLP140 T02060106 =
2018-06-19 17:56 METAR KITH 192156Z 33010KT 10SM CLR 21/11 A2996 RMK AO2 SLP142 T02060106 =
2018-06-19 16:56 METAR KITH 192056Z 29014KT 10SM CLR 22/11 A2996 RMK AO2 SLP141 T02170106 58006 =
2018-06-19 15:56 METAR KITH 191956Z 28014KT 10SM CLR 22/11 A2997 RMK AO2 SLP144 T02170111 =
2018-06-19 14:56 METAR KITH 191856Z 28017G20KT 10SM CLR 21/12 A2998 RMK AO2 SLP145 T02110117 =
2018-06-19 13:56 METAR KITH 191756Z 29013KT 10SM CLR 21/12 A2998 RMK AO2 SLP146 T02110122 10211
                 20167 58001 =
2018-06-19 12:56 METAR KITH 191656Z 29015KT 10SM SCT027 20/13 A2998 RMK AO2 SLP146 T02000128 =
2018-06-19 11:56 METAR KITH 191556Z 29016G19KT 10SM BKN025 19/13 A2999 RMK AO2 SLP149 T01940133 =
2018-06-19 10:56 METAR KITH 191456Z 32010G18KT 280V010 10SM BKN023 19/14 A2999 RMK AO2 SLP148
                 T01940139 51005 =

Support USWX by starting your Amazon purchase here.